Time;durP1;ratioP1;P1;durP2;ratioP2;P2;SDS_P1;SDS_P2;PMS_P1;PMS_P2;Temp;Humidity;BMP_temperature;BMP_pressure;BME280_temperature;BME280_humidity;BME280_pressure;Samples;Min_cycle;Max_cycle;Signal;HPM_P1;HPM_P2
2023/04/17 00:01:09;;;;;;;;;1.00;1.00;;;;;;;;4996002;28;45314;-81
2023/04/17 00:03:35;;;;;;;;;1.50;0.00;;;;;;;;4997163;28;45413;-81
2023/04/17 00:06:00;;;;;;;;;1.00;0.00;;;;;;;;5003009;28;45469;-80
2023/04/17 00:08:25;;;;;;;;;0.67;0.67;;;;;;;;5017152;28;45269;-84
2023/04/17 00:10:50;;;;;;;;;0.00;0.00;;;;;;;;5016949;28;45390;-80
2023/04/17 00:13:15;;;;;;;;;0.00;0.00;;;;;;;;5012416;28;45281;-81
2023/04/17 00:15:42;;;;;;;;;1.33;1.00;;;;;;;;4995839;28;48303;-81
2023/04/17 00:18:08;;;;;;;;;0.50;0.50;;;;;;;;4997100;28;45785;-81
2023/04/17 00:20:33;;;;;;;;;0.00;0.00;;;;;;;;4997342;28;45368;-81
2023/04/17 00:22:58;;;;;;;;;0.33;0.00;;;;;;;;4996908;28;45308;-81
2023/04/17 00:25:23;;;;;;;;;1.00;1.00;;;;;;;;4996663;28;46052;-81
2023/04/17 00:27:49;;;;;;;;;1.33;1.00;;;;;;;;4996512;28;45458;-80
2023/04/17 00:30:14;;;;;;;;;2.75;0.00;;;;;;;;4996666;28;45405;-80
2023/04/17 00:32:40;;;;;;;;;2.00;0.00;;;;;;;;4996973;28;45407;-81
2023/04/17 00:35:05;;;;;;;;;0.00;0.00;;;;;;;;4996676;28;46441;-81
2023/04/17 00:37:30;;;;;;;;;1.50;0.50;;;;;;;;4996782;28;45641;-80
2023/04/17 00:39:55;;;;;;;;;0.00;0.00;;;;;;;;4996937;28;45375;-80
2023/04/17 00:42:21;;;;;;;;;1.00;1.00;;;;;;;;4996256;28;45544;-80
2023/04/17 00:44:46;;;;;;;;;1.00;1.00;;;;;;;;4996331;28;46551;-80
2023/04/17 00:47:11;;;;;;;;;0.67;0.00;;;;;;;;4996579;28;45529;-80
2023/04/17 00:49:36;;;;;;;;;2.75;0.00;;;;;;;;4996556;28;45294;-81
2023/04/17 00:52:02;;;;;;;;;0.00;0.00;;;;;;;;4996328;28;45424;-80
2023/04/17 00:54:28;;;;;;;;;0.75;0.00;;;;;;;;4996257;28;45840;-80
2023/04/17 00:56:55;;;;;;;;;4.25;1.00;;;;;;;;4996043;28;45444;-80
2023/04/17 00:59:21;;;;;;;;;1.00;1.00;;;;;;;;4996419;28;45277;-80
2023/04/17 01:01:46;;;;;;;;;1.00;1.00;;;;;;;;4996432;28;45423;-80
2023/04/17 01:04:12;;;;;;;;;1.00;0.00;;;;;;;;4996332;28;45495;-80
2023/04/17 01:06:37;;;;;;;;;0.00;0.00;;;;;;;;5006930;28;45435;-80
2023/04/17 01:09:03;;;;;;;;;1.33;0.33;;;;;;;;5016105;28;45396;-80
2023/04/17 01:11:28;;;;;;;;;1.50;1.50;;;;;;;;5015414;28;45420;-80
2023/04/17 01:13:53;;;;;;;;;3.00;0.00;;;;;;;;5006618;28;46236;-80
2023/04/17 01:16:19;;;;;;;;;1.00;1.00;;;;;;;;4995979;28;45343;-81
2023/04/17 01:18:46;;;;;;;;;0.00;0.00;;;;;;;;4996384;28;45367;-80
2023/04/17 01:21:11;;;;;;;;;1.50;0.25;;;;;;;;4994759;28;45559;-80
2023/04/17 01:23:44;;;;;;;;;1.00;1.00;;;;;;;;4995903;28;46250;-80
2023/04/17 01:26:15;;;;;;;;;2.00;1.00;;;;;;;;4995569;28;45766;-80
2023/04/17 01:28:40;;;;;;;;;1.00;0.00;;;;;;;;4996105;28;45368;-80
2023/04/17 01:31:05;;;;;;;;;0.67;0.00;;;;;;;;4996197;28;45416;-80
2023/04/17 01:33:30;;;;;;;;;2.00;1.00;;;;;;;;4995793;28;46079;-81
2023/04/17 01:35:55;;;;;;;;;0.00;0.00;;;;;;;;4996061;28;45383;-79
2023/04/17 01:38:21;;;;;;;;;2.33;1.00;;;;;;;;4995839;28;45546;-80
2023/04/17 01:40:46;;;;;;;;;2.67;1.00;;;;;;;;4995614;28;45372;-80
2023/04/17 01:43:11;;;;;;;;;1.00;1.00;;;;;;;;4995839;28;45402;-80
2023/04/17 01:45:36;;;;;;;;;2.00;0.00;;;;;;;;4995385;28;45352;-80
2023/04/17 01:48:01;;;;;;;;;2.33;1.00;;;;;;;;4995903;28;45437;-80
2023/04/17 01:50:27;;;;;;;;;1.00;1.00;;;;;;;;4995686;28;45484;-80
2023/04/17 01:52:52;;;;;;;;;1.33;1.00;;;;;;;;4995515;28;46921;-80
2023/04/17 01:55:17;;;;;;;;;2.00;0.00;;;;;;;;4995270;28;45447;-80
2023/04/17 01:57:42;;;;;;;;;1.00;1.00;;;;;;;;4995756;28;45407;-80
2023/04/17 02:00:09;;;;;;;;;1.00;1.00;;;;;;;;4995553;28;45266;-81
2023/04/17 02:02:34;;;;;;;;;1.50;1.50;;;;;;;;4995618;28;47104;-81
2023/04/17 02:04:59;;;;;;;;;1.00;1.00;;;;;;;;4998612;28;45399;-80
2023/04/17 02:07:24;;;;;;;;;5.00;2.00;;;;;;;;5015226;28;45267;-81
2023/04/17 02:09:50;;;;;;;;;3.67;1.00;;;;;;;;5018734;28;45413;-82
2023/04/17 02:12:15;;;;;;;;;1.50;0.00;;;;;;;;5018893;28;46492;-80
2023/04/17 02:14:40;;;;;;;;;1.33;1.33;;;;;;;;5019016;28;45447;-80
2023/04/17 02:17:06;;;;;;;;;2.33;2.00;;;;;;;;5019367;28;45352;-80
2023/04/17 02:19:31;;;;;;;;;1.25;0.00;;;;;;;;5019797;28;45372;-80
2023/04/17 02:21:56;;;;;;;;;4.00;1.75;;;;;;;;5022938;28;46352;-80
2023/04/17 02:24:21;;;;;;;;;3.00;1.33;;;;;;;;5025319;28;45336;-79
2023/04/17 02:26:47;;;;;;;;;4.00;2.00;;;;;;;;5025076;28;45351;-80
2023/04/17 02:29:12;;;;;;;;;1.00;1.00;;;;;;;;5019421;28;45363;-80
2023/04/17 02:31:39;;;;;;;;;5.00;1.33;;;;;;;;5018579;28;46411;-80
2023/04/17 02:34:04;;;;;;;;;1.00;1.00;;;;;;;;5018702;28;45364;-81
2023/04/17 02:36:29;;;;;;;;;1.00;1.00;;;;;;;;5019083;28;45429;-80
2023/04/17 02:38:54;;;;;;;;;1.75;1.50;;;;;;;;5029692;28;45447;-80
2023/04/17 02:41:20;;;;;;;;;1.33;1.33;;;;;;;;5039152;28;45295;-81
2023/04/17 02:43:45;;;;;;;;;3.00;1.50;;;;;;;;5039048;28;44940;-78
2023/04/17 02:46:11;;;;;;;;;2.00;0.33;;;;;;;;5039097;28;44689;-80
2023/04/17 02:48:36;;;;;;;;;2.00;1.33;;;;;;;;5038891;28;45250;-81
2023/04/17 02:51:01;;;;;;;;;1.00;1.00;;;;;;;;5037952;28;46544;-81
2023/04/17 02:53:26;;;;;;;;;2.00;1.00;;;;;;;;5038659;28;44646;-80
2023/04/17 02:55:51;;;;;;;;;1.00;1.00;;;;;;;;5039037;28;44718;-80
2023/04/17 02:58:17;;;;;;;;;1.00;1.00;;;;;;;;5033284;28;45323;-80
2023/04/17 03:00:42;;;;;;;;;3.50;1.00;;;;;;;;5018021;28;45690;-80
2023/04/17 03:03:08;;;;;;;;;1.00;1.00;;;;;;;;5018371;28;45270;-80
2023/04/17 03:05:33;;;;;;;;;1.75;0.00;;;;;;;;5018113;28;45551;-80
2023/04/17 03:07:58;;;;;;;;;2.00;1.00;;;;;;;;5018003;28;45490;-80
2023/04/17 03:10:24;;;;;;;;;2.75;0.25;;;;;;;;5017886;28;47132;-80
2023/04/17 03:12:49;;;;;;;;;3.33;2.00;;;;;;;;5017485;28;45379;-79
2023/04/17 03:15:14;;;;;;;;;1.00;1.00;;;;;;;;4998320;28;45361;-80
2023/04/17 03:17:39;;;;;;;;;3.25;0.75;;;;;;;;4998126;28;45333;-80
2023/04/17 03:20:06;;;;;;;;;2.00;2.00;;;;;;;;4998111;28;46429;-80
2023/04/17 03:22:31;;;;;;;;;1.00;1.00;;;;;;;;4997705;28;45396;-80
2023/04/17 03:24:57;;;;;;;;;2.75;1.75;;;;;;;;4998389;28;45609;-81
2023/04/17 03:27:23;;;;;;;;;4.67;3.00;;;;;;;;4998101;28;45394;-80
2023/04/17 03:29:49;;;;;;;;;2.00;1.00;;;;;;;;4997597;28;46197;-80
2023/04/17 03:32:15;;;;;;;;;2.00;1.25;;;;;;;;4997672;28;45503;-80
2023/04/17 03:34:40;;;;;;;;;2.00;1.00;;;;;;;;4997898;28;45324;-80
2023/04/17 03:37:05;;;;;;;;;4.00;2.75;;;;;;;;4997480;28;45206;-81
2023/04/17 03:39:30;;;;;;;;;1.33;1.00;;;;;;;;4997683;28;46697;-82
2023/04/17 03:41:56;;;;;;;;;3.00;1.00;;;;;;;;4997646;28;45267;-81
2023/04/17 03:44:21;;;;;;;;;2.00;1.33;;;;;;;;4997566;28;45341;-80
2023/04/17 03:46:46;;;;;;;;;2.00;1.33;;;;;;;;4997410;28;45451;-80
2023/04/17 03:49:11;;;;;;;;;5.00;2.00;;;;;;;;4997226;28;45450;-80
2023/04/17 03:51:36;;;;;;;;;5.33;3.00;;;;;;;;4997087;28;45438;-80
2023/04/17 03:54:02;;;;;;;;;2.00;2.00;;;;;;;;4997679;28;45433;-80
2023/04/17 03:56:27;;;;;;;;;3.67;2.33;;;;;;;;4997486;28;45424;-80
2023/04/17 03:58:52;;;;;;;;;5.00;3.00;;;;;;;;4997267;28;45518;-80
2023/04/17 04:01:17;;;;;;;;;8.33;1.33;;;;;;;;4995996;28;45559;-80
2023/04/17 04:03:42;;;;;;;;;3.00;2.00;;;;;;;;4996125;28;45329;-80
2023/04/17 04:06:08;;;;;;;;;1.33;1.33;;;;;;;;5003529;28;45604;-80
2023/04/17 04:08:34;;;;;;;;;5.00;2.00;;;;;;;;5016986;28;46382;-80
2023/04/17 04:11:00;;;;;;;;;4.00;1.25;;;;;;;;5016797;28;45382;-80
2023/04/17 04:13:25;;;;;;;;;2.50;1.75;;;;;;;;5011748;28;45466;-80
2023/04/17 04:15:50;;;;;;;;;7.50;2.75;;;;;;;;4997291;28;45367;-80
2023/04/17 04:18:16;;;;;;;;;2.00;2.00;;;;;;;;4995718;28;46260;-81
2023/04/17 04:20:41;;;;;;;;;5.00;2.75;;;;;;;;4996578;28;45435;-80
2023/04/17 04:23:06;;;;;;;;;4.00;2.75;;;;;;;;4997009;28;45305;-81
2023/04/17 04:25:32;;;;;;;;;2.33;2.33;;;;;;;;4997098;28;45311;-80
2023/04/17 04:28:00;;;;;;;;;2.50;1.50;;;;;;;;4996428;28;45546;-80
2023/04/17 04:30:25;;;;;;;;;2.50;1.50;;;;;;;;4996908;28;45659;-81
2023/04/17 04:32:51;;;;;;;;;5.50;2.00;;;;;;;;4997041;28;45386;-80
2023/04/17 04:35:16;;;;;;;;;5.00;4.33;;;;;;;;4996654;28;45346;-80
2023/04/17 04:37:41;;;;;;;;;5.75;2.50;;;;;;;;4996666;28;46314;-81
2023/04/17 04:40:10;;;;;;;;;5.00;3.00;;;;;;;;4996964;28;45437;-81
2023/04/17 04:42:36;;;;;;;;;5.50;3.00;;;;;;;;4996960;28;45383;-80
2023/04/17 04:45:02;;;;;;;;;3.00;1.00;;;;;;;;4996712;28;45523;-80
2023/04/17 04:47:27;;;;;;;;;5.75;2.00;;;;;;;;4996514;28;47687;-80
2023/04/17 04:49:52;;;;;;;;;3.67;2.67;;;;;;;;4996322;28;45384;-81
2023/04/17 04:52:17;;;;;;;;;6.00;4.33;;;;;;;;4996724;28;45468;-80
2023/04/17 04:54:43;;;;;;;;;5.00;2.33;;;;;;;;4996597;28;45379;-81
2023/04/17 04:57:08;;;;;;;;;5.00;3.67;;;;;;;;4996589;28;46434;-81
2023/04/17 04:59:33;;;;;;;;;6.67;2.67;;;;;;;;4996477;28;45547;-81
2023/04/17 05:01:58;;;;;;;;;8.33;6.67;;;;;;;;5007564;28;45449;-81
2023/04/17 05:04:23;;;;;;;;;7.67;5.00;;;;;;;;4999239;28;45404;-81
2023/04/17 05:06:49;;;;;;;;;3.67;3.67;;;;;;;;5008690;28;46199;-81
2023/04/17 05:09:14;;;;;;;;;14.50;6.50;;;;;;;;5016554;28;45432;-82
2023/04/17 05:11:40;;;;;;;;;11.00;4.00;;;;;;;;5016468;28;45292;-82
2023/04/17 05:14:05;;;;;;;;;6.00;5.00;;;;;;;;5005398;28;45813;-82
2023/04/17 05:16:30;;;;;;;;;6.00;5.33;;;;;;;;4996374;28;45560;-82
2023/04/17 05:18:55;;;;;;;;;8.33;3.00;;;;;;;;5000484;28;45360;-82
2023/04/17 05:21:20;;;;;;;;;1.00;1.00;;;;;;;;5009700;28;45360;-82
2023/04/17 05:23:46;;;;;;;;;9.25;6.00;;;;;;;;4996718;28;45318;-84
2023/04/17 05:26:11;;;;;;;;;8.33;5.67;;;;;;;;5007299;28;46685;-85
2023/04/17 05:28:37;;;;;;;;;10.50;5.75;;;;;;;;5015937;28;45230;-84
2023/04/17 05:31:02;;;;;;;;;9.00;5.25;;;;;;;;5013907;28;45450;-84
2023/04/17 05:33:27;;;;;;;;;10.25;6.00;;;;;;;;5011135;28;45696;-85
2023/04/17 05:35:52;;;;;;;;;9.67;6.00;;;;;;;;5015864;28;46194;-84
2023/04/17 05:38:17;;;;;;;;;6.33;4.67;;;;;;;;5016290;28;45407;-85
2023/04/17 05:40:43;;;;;;;;;10.67;7.00;;;;;;;;5019705;28;45413;-86
2023/04/17 05:43:09;;;;;;;;;10.67;8.33;;;;;;;;5019462;28;45305;-85
2023/04/17 05:45:34;;;;;;;;;9.25;7.00;;;;;;;;5018105;28;47087;-84
2023/04/17 05:47:59;;;;;;;;;7.75;6.75;;;;;;;;5018405;28;45380;-84
2023/04/17 05:50:25;;;;;;;;;5.25;2.00;;;;;;;;5019054;28;45688;-84
2023/04/17 05:52:50;;;;;;;;;14.67;9.00;;;;;;;;5019134;28;45302;-85
2023/04/17 05:55:15;;;;;;;;;10.00;7.00;;;;;;;;5018667;28;47155;-85
2023/04/17 05:57:40;;;;;;;;;10.25;7.75;;;;;;;;5018809;28;45412;-84
2023/04/17 06:00:12;;;;;;;;;11.33;7.00;;;;;;;;5019079;28;45462;-85
2023/04/17 06:02:39;;;;;;;;;15.75;9.25;;;;;;;;5018722;28;45380;-84
2023/04/17 06:05:05;;;;;;;;;7.75;5.50;;;;;;;;5016788;28;46671;-84
2023/04/17 06:07:31;;;;;;;;;15.25;9.75;;;;;;;;5018599;28;45897;-83
2023/04/17 06:09:56;;;;;;;;;10.25;5.25;;;;;;;;5018605;28;45415;-84
2023/04/17 06:12:22;;;;;;;;;16.25;8.00;;;;;;;;5018683;28;45591;-84
2023/04/17 06:14:47;;;;;;;;;12.00;8.25;;;;;;;;5018482;28;46190;-83
2023/04/17 06:17:12;;;;;;;;;10.00;8.00;;;;;;;;5017128;28;45704;-84
2023/04/17 06:19:37;;;;;;;;;11.00;7.00;;;;;;;;5018736;28;45435;-84
2023/04/17 06:22:03;;;;;;;;;14.33;8.33;;;;;;;;5017241;28;45321;-84
2023/04/17 06:24:28;;;;;;;;;11.33;8.33;;;;;;;;5018077;28;47043;-84
2023/04/17 06:26:53;;;;;;;;;11.67;6.33;;;;;;;;5017129;28;45351;-85
2023/04/17 06:29:18;;;;;;;;;8.00;7.00;;;;;;;;5018448;28;45495;-83
2023/04/17 06:31:43;;;;;;;;;14.67;9.67;;;;;;;;5018120;28;45326;-84
2023/04/17 06:34:09;;;;;;;;;12.00;8.33;;;;;;;;5009706;28;46478;-87
2023/04/17 06:36:34;;;;;;;;;11.67;4.33;;;;;;;;5002354;28;45269;-85
2023/04/17 06:38:59;;;;;;;;;12.67;10.00;;;;;;;;5011304;28;45311;-83
2023/04/17 06:41:24;;;;;;;;;17.33;10.00;;;;;;;;5008828;28;45237;-82
2023/04/17 06:43:50;;;;;;;;;11.00;8.33;;;;;;;;5003027;28;47256;-83
2023/04/17 06:46:15;;;;;;;;;11.67;7.67;;;;;;;;5019170;28;45637;-82
2023/04/17 06:48:40;;;;;;;;;16.00;10.00;;;;;;;;5024440;28;45470;-83
2023/04/17 06:51:05;;;;;;;;;15.67;9.33;;;;;;;;5009881;28;45563;-82
2023/04/17 06:53:30;;;;;;;;;12.67;7.00;;;;;;;;5015993;28;46332;-82
2023/04/17 06:55:55;;;;;;;;;9.00;7.00;;;;;;;;5017914;28;45407;-81
2023/04/17 06:58:21;;;;;;;;;12.00;6.00;;;;;;;;5000719;28;45330;-84
2023/04/17 07:00:46;;;;;;;;;11.33;7.00;;;;;;;;5014791;28;45196;-81
2023/04/17 07:03:13;;;;;;;;;15.33;10.00;;;;;;;;5017479;28;46226;-80
2023/04/17 07:05:38;;;;;;;;;10.00;7.50;;;;;;;;5007859;28;45333;-79
2023/04/17 07:08:04;;;;;;;;;8.67;7.67;;;;;;;;5016751;28;45455;-81
2023/04/17 07:10:29;;;;;;;;;13.50;7.50;;;;;;;;5011846;28;45384;-78
2023/04/17 07:12:54;;;;;;;;;12.25;9.00;;;;;;;;5011919;28;45448;-78
2023/04/17 07:15:20;;;;;;;;;12.00;10.50;;;;;;;;5015277;28;45769;-78
2023/04/17 07:17:45;;;;;;;;;15.00;10.00;;;;;;;;5009625;28;45407;-82
2023/04/17 07:20:10;;;;;;;;;14.00;9.67;;;;;;;;4999996;28;45313;-78
2023/04/17 07:22:35;;;;;;;;;14.75;10.50;;;;;;;;5009915;28;46969;-78
2023/04/17 07:25:01;;;;;;;;;9.00;6.67;;;;;;;;4997195;28;45888;-77
2023/04/17 07:27:26;;;;;;;;;14.75;10.50;;;;;;;;5008532;28;45332;-78
2023/04/17 07:29:53;;;;;;;;;17.67;9.00;;;;;;;;4995757;28;45615;-77
2023/04/17 07:32:19;;;;;;;;;10.00;7.75;;;;;;;;5000665;28;45341;-80
2023/04/17 07:34:44;;;;;;;;;14.75;11.50;;;;;;;;5005981;28;45979;-79
2023/04/17 07:37:10;;;;;;;;;5.75;5.50;;;;;;;;5017040;28;45361;-79
2023/04/17 07:39:35;;;;;;;;;15.33;10.00;;;;;;;;5014496;28;46666;-78
2023/04/17 07:42:05;;;;;;;;;10.67;6.00;;;;;;;;5011102;28;45493;-77
2023/04/17 07:44:30;;;;;;;;;12.25;10.00;;;;;;;;5001801;28;46194;-78
2023/04/17 07:46:55;;;;;;;;;12.33;10.00;;;;;;;;5009382;28;45449;-79
2023/04/17 07:49:20;;;;;;;;;13.67;11.00;;;;;;;;5007697;28;45545;-79
2023/04/17 07:51:45;;;;;;;;;15.67;10.00;;;;;;;;5010011;28;46492;-79
2023/04/17 07:54:11;;;;;;;;;11.67;10.00;;;;;;;;5014917;28;45622;-79
2023/04/17 07:56:36;;;;;;;;;12.67;10.00;;;;;;;;5015177;28;45462;-77
2023/04/17 07:59:01;;;;;;;;;18.00;12.67;;;;;;;;4998370;28;45803;-77
2023/04/17 08:01:26;;;;;;;;;13.67;9.67;;;;;;;;5004175;28;46239;-77
2023/04/17 08:03:53;;;;;;;;;12.50;10.25;;;;;;;;5004046;28;45448;-77
2023/04/17 08:06:18;;;;;;;;;14.25;7.00;;;;;;;;5012147;28;45515;-77
2023/04/17 08:08:46;;;;;;;;;14.67;10.00;;;;;;;;5001413;28;46042;-77
2023/04/17 08:11:12;;;;;;;;;14.25;10.00;;;;;;;;5004722;28;46463;-77
2023/04/17 08:13:37;;;;;;;;;16.00;7.00;;;;;;;;5016512;28;45428;-78
2023/04/17 08:16:03;;;;;;;;;10.67;8.00;;;;;;;;5017266;28;45676;-78
2023/04/17 08:18:28;;;;;;;;;14.75;9.75;;;;;;;;5005761;28;45520;-77
2023/04/17 08:20:53;;;;;;;;;10.25;7.25;;;;;;;;4999955;28;47256;-77
2023/04/17 08:23:19;;;;;;;;;12.75;8.00;;;;;;;;5015236;28;45339;-77
2023/04/17 08:25:44;;;;;;;;;15.75;10.25;;;;;;;;5014707;28;45606;-77
2023/04/17 08:28:10;;;;;;;;;15.75;11.00;;;;;;;;5014746;28;45543;-78
2023/04/17 08:30:35;;;;;;;;;12.00;5.00;;;;;;;;5013757;28;48182;-78
2023/04/17 08:33:00;;;;;;;;;17.25;11.25;;;;;;;;5013952;28;45427;-78
2023/04/17 08:35:25;;;;;;;;;15.33;11.33;;;;;;;;5014744;28;45532;-78
2023/04/17 08:37:51;;;;;;;;;12.25;8.25;;;;;;;;5005579;28;45415;-77
2023/04/17 08:40:17;;;;;;;;;11.67;10.00;;;;;;;;5007151;28;45579;-77
2023/04/17 08:42:43;;;;;;;;;8.50;7.00;;;;;;;;5014488;28;45363;-78
2023/04/17 08:45:11;;;;;;;;;13.75;12.25;;;;;;;;5006995;28;45689;-77
2023/04/17 08:47:40;;;;;;;;;16.00;11.25;;;;;;;;5007907;28;45423;-78
2023/04/17 08:50:09;;;;;;;;;23.50;12.00;;;;;;;;5011110;28;46529;-78
2023/04/17 08:52:41;;;;;;;;;13.75;11.00;;;;;;;;5014796;28;45297;-78
2023/04/17 08:55:07;;;;;;;;;16.00;11.25;;;;;;;;5013166;28;45346;-78
2023/04/17 08:57:32;;;;;;;;;15.50;11.50;;;;;;;;5014014;28;45410;-76
2023/04/17 08:59:59;;;;;;;;;13.00;12.33;;;;;;;;5003250;28;46296;-77
2023/04/17 09:02:24;;;;;;;;;15.00;10.50;;;;;;;;5007025;28;45191;-77
2023/04/17 09:04:49;;;;;;;;;19.33;13.00;;;;;;;;5015072;28;45514;-78
2023/04/17 09:07:14;;;;;;;;;14.67;10.33;;;;;;;;5012709;28;45295;-78
2023/04/17 09:10:00;;;;;;;;;20.25;12.50;;;;;;;;5012835;28;46261;-78
2023/04/17 09:12:25;;;;;;;;;22.25;12.25;;;;;;;;5013617;28;45324;-79
2023/04/17 09:14:51;;;;;;;;;14.75;10.50;;;;;;;;5014154;28;46327;-79
2023/04/17 09:17:17;;;;;;;;;17.00;12.33;;;;;;;;5014296;28;45250;-78
2023/04/17 09:20:00;;;;;;;;;26.00;15.00;;;;;;;;5014489;28;46532;-79
2023/04/17 09:22:25;;;;;;;;;14.75;11.00;;;;;;;;5014172;28;45431;-79
2023/04/17 09:24:51;;;;;;;;;21.33;12.67;;;;;;;;5008744;28;45574;-79
2023/04/17 09:27:20;;;;;;;;;20.50;15.50;;;;;;;;5013941;28;45605;-79
2023/04/17 09:29:58;;;;;;;;;18.50;11.75;;;;;;;;5014193;28;46457;-78
2023/04/17 09:32:24;;;;;;;;;19.75;15.00;;;;;;;;5011162;28;45804;-79
2023/04/17 09:34:50;;;;;;;;;21.50;14.00;;;;;;;;5013542;28;45638;-79
2023/04/17 09:37:15;;;;;;;;;23.75;15.75;;;;;;;;5013508;28;45598;-78
2023/04/17 09:40:00;;;;;;;;;14.67;12.33;;;;;;;;5002697;28;46164;-78
2023/04/17 09:42:26;;;;;;;;;18.00;6.00;;;;;;;;5013102;28;45969;-78
2023/04/17 09:44:51;;;;;;;;;18.25;10.25;;;;;;;;5009651;28;45556;-78
2023/04/17 09:47:17;;;;;;;;;19.50;12.00;;;;;;;;5001496;28;45616;-77
2023/04/17 09:49:51;;;;;;;;;21.75;15.25;;;;;;;;5005064;28;46483;-77
2023/04/17 09:52:17;;;;;;;;;16.50;11.00;;;;;;;;4998922;28;45806;-77
2023/04/17 09:54:43;;;;;;;;;17.00;10.75;;;;;;;;5010077;28;45519;-76
2023/04/17 09:57:09;;;;;;;;;16.50;12.00;;;;;;;;5012858;28;45391;-77
2023/04/17 09:59:44;;;;;;;;;14.00;11.00;;;;;;;;5013417;28;46794;-76
2023/04/17 10:02:11;;;;;;;;;17.50;12.25;;;;;;;;5001861;28;45422;-77
2023/04/17 10:04:38;;;;;;;;;18.50;12.25;;;;;;;;5011907;28;45359;-76
2023/04/17 10:07:03;;;;;;;;;18.00;11.25;;;;;;;;5010551;28;45559;-74
2023/04/17 10:09:29;;;;;;;;;17.25;14.50;;;;;;;;5013252;28;47055;-75
2023/04/17 10:11:55;;;;;;;;;16.33;13.00;;;;;;;;5012995;28;45515;-74
2023/04/17 10:14:24;;;;;;;;;12.50;11.50;;;;;;;;5006571;28;45369;-74
2023/04/17 10:16:50;;;;;;;;;13.00;8.75;;;;;;;;4999298;28;45456;-74
2023/04/17 10:19:28;;;;;;;;;16.00;11.00;;;;;;;;5013707;28;45994;-75
2023/04/17 10:22:20;;;;;;;;;19.00;16.50;;;;;;;;5027071;28;45426;-75
2023/04/17 10:25:12;;;;;;;;;18.50;13.00;;;;;;;;5013439;28;45450;-74
2023/04/17 10:27:40;;;;;;;;;18.50;12.00;;;;;;;;5014290;28;45428;-74
2023/04/17 10:30:11;;;;;;;;;23.75;13.00;;;;;;;;5014735;28;47389;-74
2023/04/17 10:32:37;;;;;;;;;19.25;14.00;;;;;;;;5009913;28;45701;-76
2023/04/17 10:35:18;;;;;;;;;14.50;12.50;;;;;;;;5007872;28;45509;-75
2023/04/17 10:37:46;;;;;;;;;17.50;11.00;;;;;;;;5022049;28;45611;-74
2023/04/17 10:40:13;;;;;;;;;13.75;11.00;;;;;;;;5010927;28;47094;-76
2023/04/17 10:42:38;;;;;;;;;16.25;10.25;;;;;;;;5000699;28;45393;-74
2023/04/17 10:45:16;;;;;;;;;16.00;11.33;;;;;;;;5008208;28;45468;-74
2023/04/17 10:47:44;;;;;;;;;19.00;14.00;;;;;;;;5003774;28;45494;-74
2023/04/17 10:50:09;;;;;;;;;13.75;12.00;;;;;;;;5003610;28;47101;-74
2023/04/17 10:52:43;;;;;;;;;13.00;9.00;;;;;;;;5014176;28;45826;-74
2023/04/17 10:55:16;;;;;;;;;12.75;12.50;;;;;;;;5003280;28;45350;-74
2023/04/17 10:58:02;;;;;;;;;18.00;12.75;;;;;;;;5005443;28;45793;-76
2023/04/17 11:00:29;;;;;;;;;18.00;12.50;;;;;;;;5009738;28;45585;-74
2023/04/17 11:02:54;;;;;;;;;17.00;9.00;;;;;;;;5013935;28;46050;-74
2023/04/17 11:05:20;;;;;;;;;16.25;10.25;;;;;;;;5014017;28;45420;-74
2023/04/17 11:07:49;;;;;;;;;17.50;15.25;;;;;;;;5009348;28;45615;-74
2023/04/17 11:10:15;;;;;;;;;14.00;12.75;;;;;;;;5010305;28;46929;-74
2023/04/17 11:12:43;;;;;;;;;13.50;10.50;;;;;;;;5012778;28;46929;-75
2023/04/17 11:15:09;;;;;;;;;24.50;15.00;;;;;;;;5013045;28;45601;-74
2023/04/17 11:17:37;;;;;;;;;18.67;12.67;;;;;;;;4999836;28;45593;-74
2023/04/17 11:20:02;;;;;;;;;16.25;10.50;;;;;;;;5004915;28;45723;-75
2023/04/17 11:22:32;;;;;;;;;13.50;10.50;;;;;;;;5006052;28;45417;-75
2023/04/17 11:24:57;;;;;;;;;25.00;14.00;;;;;;;;5010752;28;45656;-76
2023/04/17 11:27:23;;;;;;;;;14.33;6.33;;;;;;;;5016420;28;46583;-77
2023/04/17 11:29:48;;;;;;;;;14.00;10.33;;;;;;;;5004844;28;45417;-77
2023/04/17 11:32:13;;;;;;;;;12.67;9.00;;;;;;;;5008283;28;45447;-76
2023/04/17 11:34:38;;;;;;;;;14.00;10.00;;;;;;;;5011562;28;45253;-79
2023/04/17 11:37:03;;;;;;;;;12.67;8.67;;;;;;;;5019625;28;45397;-76
2023/04/17 11:39:30;;;;;;;;;14.00;10.67;;;;;;;;5035910;28;45440;-77
2023/04/17 11:41:56;;;;;;;;;17.00;13.50;;;;;;;;5030109;28;45443;-77
2023/04/17 11:44:21;;;;;;;;;17.25;12.00;;;;;;;;5016234;28;45344;-77
2023/04/17 11:46:53;;;;;;;;;15.00;10.25;;;;;;;;5012295;28;45380;-78
2023/04/17 11:49:29;;;;;;;;;10.50;8.50;;;;;;;;5000957;28;45513;-77
2023/04/17 11:51:55;;;;;;;;;13.25;9.50;;;;;;;;5014916;28;45379;-77
2023/04/17 11:54:24;;;;;;;;;11.25;10.50;;;;;;;;5016163;28;45511;-77
2023/04/17 11:57:00;;;;;;;;;18.50;9.00;;;;;;;;5005516;28;45462;-78
2023/04/17 11:59:29;;;;;;;;;17.50;10.25;;;;;;;;5025056;28;46253;-79
2023/04/17 12:01:55;;;;;;;;;12.00;10.00;;;;;;;;5015817;28;45364;-77
2023/04/17 12:04:20;;;;;;;;;12.00;10.75;;;;;;;;5015647;28;45807;-77
2023/04/17 12:06:45;;;;;;;;;17.50;8.50;;;;;;;;5014735;28;45574;-79
2023/04/17 12:09:17;;;;;;;;;16.00;11.67;;;;;;;;5005237;28;46363;-78
2023/04/17 12:11:42;;;;;;;;;19.00;11.00;;;;;;;;5015674;28;45358;-78
2023/04/17 12:14:10;;;;;;;;;11.00;11.00;;;;;;;;5016039;28;45375;-77
2023/04/17 12:16:36;;;;;;;;;21.75;10.25;;;;;;;;5015274;28;45488;-78
2023/04/17 12:19:01;;;;;;;;;15.67;14.00;;;;;;;;5002084;28;46103;-78
2023/04/17 12:21:26;;;;;;;;;11.33;9.33;;;;;;;;5015556;28;45882;-78
2023/04/17 12:23:51;;;;;;;;;15.67;12.67;;;;;;;;5014105;28;45313;-79
2023/04/17 12:26:16;;;;;;;;;12.67;11.67;;;;;;;;5011190;28;45483;-78
2023/04/17 12:28:41;;;;;;;;;13.67;9.67;;;;;;;;5015248;28;46468;-79
2023/04/17 12:31:07;;;;;;;;;11.67;10.33;;;;;;;;5015540;28;45317;-79
2023/04/17 12:33:32;;;;;;;;;9.67;8.67;;;;;;;;5014995;28;45373;-80
2023/04/17 12:35:59;;;;;;;;;12.75;12.00;;;;;;;;5009134;28;45521;-78
2023/04/17 12:38:24;;;;;;;;;16.75;12.00;;;;;;;;5003320;28;46242;-79
2023/04/17 12:40:50;;;;;;;;;16.00;12.00;;;;;;;;5011980;28;45478;-80
2023/04/17 12:43:15;;;;;;;;;15.00;8.00;;;;;;;;5005722;28;45421;-80
2023/04/17 12:45:41;;;;;;;;;8.00;7.00;;;;;;;;4995283;28;45381;-80
2023/04/17 12:48:06;;;;;;;;;11.75;9.75;;;;;;;;4996610;28;45434;-78
2023/04/17 12:50:32;;;;;;;;;14.25;12.25;;;;;;;;5011630;28;45514;-80
2023/04/17 12:52:57;;;;;;;;;14.75;10.25;;;;;;;;4995039;28;45681;-77
2023/04/17 12:55:25;;;;;;;;;12.50;12.50;;;;;;;;5009635;28;45450;-77
2023/04/17 12:57:50;;;;;;;;;17.00;12.75;;;;;;;;5012134;28;45678;-77
2023/04/17 13:00:15;;;;;;;;;14.00;12.00;;;;;;;;5010561;28;45684;-75
2023/04/17 13:02:41;;;;;;;;;13.25;10.25;;;;;;;;5004954;28;45975;-77
2023/04/17 13:05:06;;;;;;;;;17.00;10.67;;;;;;;;5000431;28;45526;-77
2023/04/17 13:07:32;;;;;;;;;16.00;10.25;;;;;;;;4999328;28;47519;-77
2023/04/17 13:09:57;;;;;;;;;12.75;8.50;;;;;;;;5004341;28;45630;-77
2023/04/17 13:12:22;;;;;;;;;16.25;9.75;;;;;;;;5000676;28;45285;-77
2023/04/17 13:14:47;;;;;;;;;11.67;10.33;;;;;;;;5004399;28;45341;-76
2023/04/17 13:17:13;;;;;;;;;14.33;10.33;;;;;;;;5032387;28;45806;-78
2023/04/17 13:19:38;;;;;;;;;19.25;13.00;;;;;;;;5014530;28;45600;-77
2023/04/17 13:22:04;;;;;;;;;12.75;12.00;;;;;;;;5003733;28;45463;-78
2023/04/17 13:24:30;;;;;;;;;15.00;12.25;;;;;;;;5008539;28;45293;-78
2023/04/17 13:26:58;;;;;;;;;20.50;12.00;;;;;;;;5013452;28;47206;-78
2023/04/17 13:29:23;;;;;;;;;18.50;13.00;;;;;;;;5014316;28;45376;-78
2023/04/17 13:31:48;;;;;;;;;16.00;14.33;;;;;;;;5014021;28;45307;-77
2023/04/17 13:34:14;;;;;;;;;17.00;12.67;;;;;;;;5014001;28;45551;-77
2023/04/17 13:36:40;;;;;;;;;18.50;15.25;;;;;;;;5013615;28;46297;-78
2023/04/17 13:39:06;;;;;;;;;21.50;13.75;;;;;;;;5014610;28;45233;-78
2023/04/17 13:41:31;;;;;;;;;18.50;12.00;;;;;;;;5013638;28;45641;-78
2023/04/17 13:43:56;;;;;;;;;10.33;5.33;;;;;;;;5012490;28;45320;-78
2023/04/17 13:46:21;;;;;;;;;16.67;14.00;;;;;;;;5012479;28;47260;-78
2023/04/17 13:48:47;;;;;;;;;20.67;13.00;;;;;;;;5013464;28;45500;-79
2023/04/17 13:51:12;;;;;;;;;22.00;14.75;;;;;;;;5013375;28;45396;-77
2023/04/17 13:53:37;;;;;;;;;19.25;15.75;;;;;;;;5003159;28;45581;-77
2023/04/17 13:56:03;;;;;;;;;10.00;10.00;;;;;;;;5021787;28;45825;-77
2023/04/17 13:58:28;;;;;;;;;15.00;12.00;;;;;;;;5023182;28;45689;-76
2023/04/17 14:00:53;;;;;;;;;23.67;13.33;;;;;;;;5004932;28;45527;-78
2023/04/17 14:03:18;;;;;;;;;22.00;12.67;;;;;;;;5014993;28;45575;-78
2023/04/17 14:05:43;;;;;;;;;15.33;12.00;;;;;;;;5017326;28;46775;-77
2023/04/17 14:08:09;;;;;;;;;16.00;12.67;;;;;;;;5012914;28;45500;-78
2023/04/17 14:10:34;;;;;;;;;19.00;14.67;;;;;;;;5010875;28;45545;-78
2023/04/17 14:13:00;;;;;;;;;15.25;13.00;;;;;;;;5009820;28;45349;-78
2023/04/17 14:15:25;;;;;;;;;17.25;10.75;;;;;;;;5009498;28;46277;-78
2023/04/17 14:17:50;;;;;;;;;14.00;11.67;;;;;;;;5016882;28;45555;-78
2023/04/17 14:20:16;;;;;;;;;19.67;11.67;;;;;;;;5006776;28;45407;-78
2023/04/17 14:22:41;;;;;;;;;16.50;14.00;;;;;;;;5016362;28;45458;-78
2023/04/17 14:25:07;;;;;;;;;21.00;12.00;;;;;;;;5017436;28;45745;-77